sensor_id;sensor_type;location;lat;lon;timestamp;P1;durP1;ratioP1;P2;durP2;ratioP2
18471;SDS011;9365;48.258;12.518;2022-08-19T00:03:49;13.870000000000001;;;11.420000000000002;;
18471;SDS011;9365;48.258;12.518;2022-08-19T00:09:17;13.529999999999998;;;10.040000000000001;;
18471;SDS011;9365;48.258;12.518;2022-08-19T00:14:45;13.09;;;10.129999999999999;;
18471;SDS011;9365;48.258;12.518;2022-08-19T00:20:14;13.74;;;10.89;;
18471;SDS011;9365;48.258;12.518;2022-08-19T00:25:41;16.419999999999998;;;11.97;;
18471;SDS011;9365;48.258;12.518;2022-08-19T00:31:09;14.379999999999999;;;11.18;;
18471;SDS011;9365;48.258;12.518;2022-08-19T00:36:37;14.810000000000002;;;11.61;;
18471;SDS011;9365;48.258;12.518;2022-08-19T00:42:05;16.9;;;10.98;;
18471;SDS011;9365;48.258;12.518;2022-08-19T00:47:33;14.36;;;9.879999999999999;;
18471;SDS011;9365;48.258;12.518;2022-08-19T00:53:00;12.02;;;9.85;;
18471;SDS011;9365;48.258;12.518;2022-08-19T00:58:30;11.55;;;9.5;;
18471;SDS011;9365;48.258;12.518;2022-08-19T01:03:58;11.73;;;9.629999999999999;;
18471;SDS011;9365;48.258;12.518;2022-08-19T01:09:25;12.099999999999998;;;10.120000000000001;;
18471;SDS011;9365;48.258;12.518;2022-08-19T01:14:53;12.58;;;10.209999999999999;;
18471;SDS011;9365;48.258;12.518;2022-08-19T01:20:22;12.01;;;9.67;;
18471;SDS011;9365;48.258;12.518;2022-08-19T01:25:51;14.76;;;10.78;;
18471;SDS011;9365;48.258;12.518;2022-08-19T01:31:19;12.05;;;9.84;;
18471;SDS011;9365;48.258;12.518;2022-08-19T01:36:47;12.73;;;10.450000000000001;;
18471;SDS011;9365;48.258;12.518;2022-08-19T01:42:15;12.219999999999999;;;10.219999999999999;;
18471;SDS011;9365;48.258;12.518;2022-08-19T01:47:42;12.75;;;10.55;;
18471;SDS011;9365;48.258;12.518;2022-08-19T01:53:11;12.9;;;9.86;;
18471;SDS011;9365;48.258;12.518;2022-08-19T01:58:40;11.4;;;8.66;;
18471;SDS011;9365;48.258;12.518;2022-08-19T02:04:08;9.53;;;8.45;;
18471;SDS011;9365;48.258;12.518;2022-08-19T02:09:36;12.389999999999999;;;9.49;;
18471;SDS011;9365;48.258;12.518;2022-08-19T02:15:04;10.379999999999999;;;8.64;;
18471;SDS011;9365;48.258;12.518;2022-08-19T02:20:32;10.55;;;7.779999999999999;;
18471;SDS011;9365;48.258;12.518;2022-08-19T02:25:59;10.309999999999999;;;7.12;;
18471;SDS011;9365;48.258;12.518;2022-08-19T02:31:27;10.049999999999999;;;7.15;;
18471;SDS011;9365;48.258;12.518;2022-08-19T02:36:55;9.99;;;7.37;;
18471;SDS011;9365;48.258;12.518;2022-08-19T02:42:23;7.99;;;6.26;;
18471;SDS011;9365;48.258;12.518;2022-08-19T02:47:50;8.21;;;7.090000000000001;;
18471;SDS011;9365;48.258;12.518;2022-08-19T02:53:18;8.83;;;6.709999999999999;;
18471;SDS011;9365;48.258;12.518;2022-08-19T02:58:46;12.23;;;7.37;;
18471;SDS011;9365;48.258;12.518;2022-08-19T03:04:14;12.180000000000001;;;7.83;;
18471;SDS011;9365;48.258;12.518;2022-08-19T03:09:42;10.97;;;7.029999999999999;;
18471;SDS011;9365;48.258;12.518;2022-08-19T03:15:09;13.14;;;7.9399999999999995;;
18471;SDS011;9365;48.258;12.518;2022-08-19T03:20:41;8.51;;;6.69;;
18471;SDS011;9365;48.258;12.518;2022-08-19T03:26:09;8.440000000000001;;;6.7700000000000005;;
18471;SDS011;9365;48.258;12.518;2022-08-19T03:31:37;10.16;;;7.32;;
18471;SDS011;9365;48.258;12.518;2022-08-19T03:37:06;9.440000000000001;;;7.580000000000001;;
18471;SDS011;9365;48.258;12.518;2022-08-19T03:42:33;10.86;;;7.539999999999999;;
18471;SDS011;9365;48.258;12.518;2022-08-19T03:48:01;8.66;;;6.4399999999999995;;
18471;SDS011;9365;48.258;12.518;2022-08-19T03:53:29;7.01;;;6.07;;
18471;SDS011;9365;48.258;12.518;2022-08-19T03:58:58;7.409999999999999;;;6.5;;
18471;SDS011;9365;48.258;12.518;2022-08-19T04:04:26;8.7;;;7.0200000000000005;;
18471;SDS011;9365;48.258;12.518;2022-08-19T04:09:54;7.890000000000001;;;6.31;;
18471;SDS011;9365;48.258;12.518;2022-08-19T04:15:21;8.439999999999998;;;6.790000000000001;;
18471;SDS011;9365;48.258;12.518;2022-08-19T04:20:49;7.030000000000001;;;6.029999999999999;;
18471;SDS011;9365;48.258;12.518;2022-08-19T04:26:17;6.859999999999999;;;6.18;;
18471;SDS011;9365;48.258;12.518;2022-08-19T04:31:46;7.4799999999999995;;;5.79;;
18471;SDS011;9365;48.258;12.518;2022-08-19T04:37:13;8.72;;;6.779999999999999;;
18471;SDS011;9365;48.258;12.518;2022-08-19T04:42:41;7.949999999999998;;;6.31;;
18471;SDS011;9365;48.258;12.518;2022-08-19T04:48:09;6.5;;;5.8;;
18471;SDS011;9365;48.258;12.518;2022-08-19T04:53:37;7.389999999999999;;;6.42;;
18471;SDS011;9365;48.258;12.518;2022-08-19T04:59:05;6.980000000000001;;;6.039999999999999;;
18471;SDS011;9365;48.258;12.518;2022-08-19T05:04:33;8.8;;;7.110000000000001;;
18471;SDS011;9365;48.258;12.518;2022-08-19T05:10:00;6.960000000000001;;;5.68;;
18471;SDS011;9365;48.258;12.518;2022-08-19T05:15:28;7.38;;;5.67;;
18471;SDS011;9365;48.258;12.518;2022-08-19T05:20:55;7.2;;;5.36;;
18471;SDS011;9365;48.258;12.518;2022-08-19T05:26:23;5.860000000000001;;;5.2700000000000005;;
18471;SDS011;9365;48.258;12.518;2022-08-19T05:31:51;6.01;;;5.21;;
18471;SDS011;9365;48.258;12.518;2022-08-19T05:37:19;5.41;;;4.74;;
18471;SDS011;9365;48.258;12.518;2022-08-19T05:42:46;7.359999999999999;;;5.339999999999999;;
18471;SDS011;9365;48.258;12.518;2022-08-19T05:48:14;5.32;;;4.7;;
18471;SDS011;9365;48.258;12.518;2022-08-19T05:53:42;6.199999999999999;;;4.950000000000001;;
18471;SDS011;9365;48.258;12.518;2022-08-19T05:59:10;6.020000000000001;;;4.819999999999999;;
18471;SDS011;9365;48.258;12.518;2022-08-19T06:04:37;7.859999999999999;;;5.15;;
18471;SDS011;9365;48.258;12.518;2022-08-19T06:10:07;6.029999999999999;;;4.91;;
18471;SDS011;9365;48.258;12.518;2022-08-19T06:15:35;7.799999999999999;;;5.21;;
18471;SDS011;9365;48.258;12.518;2022-08-19T06:21:02;6.43;;;5.14;;
18471;SDS011;9365;48.258;12.518;2022-08-19T06:26:30;6.67;;;5.110000000000001;;
18471;SDS011;9365;48.258;12.518;2022-08-19T06:31:59;19.91;;;5.49;;
18471;SDS011;9365;48.258;12.518;2022-08-19T06:37:26;17.029999999999998;;;5.39;;
18471;SDS011;9365;48.258;12.518;2022-08-19T06:42:54;17.22;;;5.639999999999999;;
18471;SDS011;9365;48.258;12.518;2022-08-19T06:48:22;10.080000000000002;;;5.659999999999999;;
18471;SDS011;9365;48.258;12.518;2022-08-19T06:53:50;10.59;;;5.529999999999999;;
18471;SDS011;9365;48.258;12.518;2022-08-19T06:59:20;11.68;;;6.67;;
18471;SDS011;9365;48.258;12.518;2022-08-19T07:04:48;7.37;;;6.24;;
18471;SDS011;9365;48.258;12.518;2022-08-19T07:10:15;8.879999999999999;;;6.9799999999999995;;
18471;SDS011;9365;48.258;12.518;2022-08-19T07:15:43;8.17;;;6.489999999999999;;
18471;SDS011;9365;48.258;12.518;2022-08-19T07:21:11;6.7299999999999995;;;5.950000000000001;;
18471;SDS011;9365;48.258;12.518;2022-08-19T07:26:40;6.970000000000001;;;6.11;;
18471;SDS011;9365;48.258;12.518;2022-08-19T07:32:08;10.120000000000001;;;8.129999999999999;;
18471;SDS011;9365;48.258;12.518;2022-08-19T07:37:36;10.4;;;8.65;;
18471;SDS011;9365;48.258;12.518;2022-08-19T07:43:03;9.23;;;8.290000000000001;;
18471;SDS011;9365;48.258;12.518;2022-08-19T07:48:31;11.18;;;8.17;;
18471;SDS011;9365;48.258;12.518;2022-08-19T07:53:59;9.15;;;7.470000000000001;;
18471;SDS011;9365;48.258;12.518;2022-08-19T07:59:26;13.059999999999999;;;8.78;;
18471;SDS011;9365;48.258;12.518;2022-08-19T08:04:54;11.41;;;8.870000000000001;;
18471;SDS011;9365;48.258;12.518;2022-08-19T08:10:22;15.229999999999999;;;10.48;;
18471;SDS011;9365;48.258;12.518;2022-08-19T08:15:50;15.34;;;11.339999999999998;;
18471;SDS011;9365;48.258;12.518;2022-08-19T08:21:17;15.320000000000002;;;11.11;;
18471;SDS011;9365;48.258;12.518;2022-08-19T08:26:45;16.729999999999997;;;11.75;;
18471;SDS011;9365;48.258;12.518;2022-08-19T08:32:13;15.74;;;11.85;;
18471;SDS011;9365;48.258;12.518;2022-08-19T08:37:40;18.44;;;12.75;;
18471;SDS011;9365;48.258;12.518;2022-08-19T08:43:10;15.689999999999998;;;12.21;;
18471;SDS011;9365;48.258;12.518;2022-08-19T08:48:42;20.27;;;13.02;;
18471;SDS011;9365;48.258;12.518;2022-08-19T08:54:12;15.960000000000003;;;11.17;;
18471;SDS011;9365;48.258;12.518;2022-08-19T08:59:41;16.62;;;11.709999999999999;;
18471;SDS011;9365;48.258;12.518;2022-08-19T09:05:10;15.36;;;10.03;;
18471;SDS011;9365;48.258;12.518;2022-08-19T09:10:39;14.709999999999999;;;10.010000000000002;;
18471;SDS011;9365;48.258;12.518;2022-08-19T09:16:07;10.49;;;8.680000000000001;;
18471;SDS011;9365;48.258;12.518;2022-08-19T09:21:36;12.67;;;9.2;;
18471;SDS011;9365;48.258;12.518;2022-08-19T09:27:03;9.36;;;7.6;;
18471;SDS011;9365;48.258;12.518;2022-08-19T09:32:31;12.45;;;8.02;;
18471;SDS011;9365;48.258;12.518;2022-08-19T09:37:59;11.2;;;7.669999999999999;;
18471;SDS011;9365;48.258;12.518;2022-08-19T09:43:27;10.48;;;7.1;;
18471;SDS011;9365;48.258;12.518;2022-08-19T09:48:54;9.080000000000002;;;7.219999999999999;;
18471;SDS011;9365;48.258;12.518;2022-08-19T09:54:24;6.93;;;5.970000000000001;;
18471;SDS011;9365;48.258;12.518;2022-08-19T09:59:52;7.17;;;6.28;;
18471;SDS011;9365;48.258;12.518;2022-08-19T10:05:20;8.14;;;6.470000000000001;;
18471;SDS011;9365;48.258;12.518;2022-08-19T10:10:48;6.159999999999999;;;5.570000000000001;;
18471;SDS011;9365;48.258;12.518;2022-08-19T10:16:16;5.7700000000000005;;;4.859999999999999;;
18471;SDS011;9365;48.258;12.518;2022-08-19T10:21:44;5.43;;;4.92;;
18471;SDS011;9365;48.258;12.518;2022-08-19T10:27:12;7.06;;;5.8100000000000005;;
18471;SDS011;9365;48.258;12.518;2022-08-19T10:32:39;5.95;;;5.24;;
18471;SDS011;9365;48.258;12.518;2022-08-19T10:38:07;7.659999999999999;;;5.6000000000000005;;
18471;SDS011;9365;48.258;12.518;2022-08-19T10:43:34;11.040000000000001;;;6.12;;
18471;SDS011;9365;48.258;12.518;2022-08-19T10:49:03;6.74;;;5.550000000000001;;
18471;SDS011;9365;48.258;12.518;2022-08-19T10:54:31;12.77;;;6.12;;
18471;SDS011;9365;48.258;12.518;2022-08-19T11:00:00;8.430000000000001;;;5.51;;
18471;SDS011;9365;48.258;12.518;2022-08-19T11:05:28;5.71;;;5.210000000000001;;
18471;SDS011;9365;48.258;12.518;2022-08-19T11:10:58;5.4399999999999995;;;4.78;;
18471;SDS011;9365;48.258;12.518;2022-08-19T11:16:26;5.86;;;5.07;;
18471;SDS011;9365;48.258;12.518;2022-08-19T11:21:54;5.040000000000001;;;4.37;;
18471;SDS011;9365;48.258;12.518;2022-08-19T11:27:22;6.6899999999999995;;;4.199999999999999;;
18471;SDS011;9365;48.258;12.518;2022-08-19T11:32:50;6.24;;;4.27;;
18471;SDS011;9365;48.258;12.518;2022-08-19T11:38:17;4.92;;;4.519999999999999;;
18471;SDS011;9365;48.258;12.518;2022-08-19T11:43:45;4.3100000000000005;;;3.8600000000000003;;
18471;SDS011;9365;48.258;12.518;2022-08-19T11:49:13;5.3;;;4.860000000000001;;
18471;SDS011;9365;48.258;12.518;2022-08-19T11:54:41;5.540000000000001;;;4.9799999999999995;;
18471;SDS011;9365;48.258;12.518;2022-08-19T12:00:09;5.24;;;4.819999999999999;;
18471;SDS011;9365;48.258;12.518;2022-08-19T12:05:37;6.19;;;5.63;;
18471;SDS011;9365;48.258;12.518;2022-08-19T12:11:05;5.670000000000001;;;5.1;;
18471;SDS011;9365;48.258;12.518;2022-08-19T12:16:33;5.61;;;4.82;;
18471;SDS011;9365;48.258;12.518;2022-08-19T12:22:01;6.220000000000001;;;5.64;;
18471;SDS011;9365;48.258;12.518;2022-08-19T12:27:30;7.2299999999999995;;;6.5;;
18471;SDS011;9365;48.258;12.518;2022-08-19T12:32:57;6.65;;;6.01;;
18471;SDS011;9365;48.258;12.518;2022-08-19T12:38:25;8.21;;;6.76;;
18471;SDS011;9365;48.258;12.518;2022-08-19T12:43:53;8.680000000000001;;;7.790000000000001;;
18471;SDS011;9365;48.258;12.518;2022-08-19T12:49:20;7.339999999999999;;;6.640000000000001;;
18471;SDS011;9365;48.258;12.518;2022-08-19T12:54:48;6.14;;;5.5600000000000005;;
18471;SDS011;9365;48.258;12.518;2022-08-19T13:00:16;8.5;;;7.49;;
18471;SDS011;9365;48.258;12.518;2022-08-19T13:05:44;7.790000000000001;;;7.01;;
18471;SDS011;9365;48.258;12.518;2022-08-19T13:11:14;7.1;;;6.409999999999999;;
18471;SDS011;9365;48.258;12.518;2022-08-19T13:16:42;7.279999999999999;;;6.45;;
18471;SDS011;9365;48.258;12.518;2022-08-19T13:22:09;6.44;;;5.87;;
18471;SDS011;9365;48.258;12.518;2022-08-19T13:27:37;8.09;;;7.2700000000000005;;
18471;SDS011;9365;48.258;12.518;2022-08-19T13:33:05;9.059999999999999;;;7.05;;
18471;SDS011;9365;48.258;12.518;2022-08-19T13:38:33;9.08;;;7.68;;
18471;SDS011;9365;48.258;12.518;2022-08-19T13:44:00;8.279999999999998;;;6.9399999999999995;;
18471;SDS011;9365;48.258;12.518;2022-08-19T13:49:28;7.9300000000000015;;;6.5;;
18471;SDS011;9365;48.258;12.518;2022-08-19T13:54:56;9.08;;;5.630000000000001;;
18471;SDS011;9365;48.258;12.518;2022-08-19T14:00:24;6.389999999999999;;;5.160000000000001;;
18471;SDS011;9365;48.258;12.518;2022-08-19T14:05:52;6.220000000000001;;;5.529999999999999;;
18471;SDS011;9365;48.258;12.518;2022-08-19T14:11:20;5.07;;;3.91;;
18471;SDS011;9365;48.258;12.518;2022-08-19T14:16:47;7.669999999999999;;;6.57;;
18471;SDS011;9365;48.258;12.518;2022-08-19T14:22:15;10.41;;;8.59;;
18471;SDS011;9365;48.258;12.518;2022-08-19T14:27:43;11.010000000000002;;;8.819999999999999;;
18471;SDS011;9365;48.258;12.518;2022-08-19T14:33:10;7.87;;;7.0600000000000005;;
18471;SDS011;9365;48.258;12.518;2022-08-19T14:38:38;10.39;;;8.63;;
18471;SDS011;9365;48.258;12.518;2022-08-19T14:44:06;12.070000000000002;;;9.26;;
18471;SDS011;9365;48.258;12.518;2022-08-19T14:49:33;9.030000000000001;;;6.95;;
18471;SDS011;9365;48.258;12.518;2022-08-19T14:55:01;6.25;;;4.65;;
18471;SDS011;9365;48.258;12.518;2022-08-19T15:00:29;3.65;;;3.21;;
18471;SDS011;9365;48.258;12.518;2022-08-19T15:05:57;5.840000000000001;;;3.31;;
18471;SDS011;9365;48.258;12.518;2022-08-19T15:11:25;2.9300000000000006;;;2.7;;
18471;SDS011;9365;48.258;12.518;2022-08-19T15:16:53;2.2600000000000002;;;2.14;;
18471;SDS011;9365;48.258;12.518;2022-08-19T15:22:21;1.89;;;1.8400000000000003;;
18471;SDS011;9365;48.258;12.518;2022-08-19T15:27:49;4.0600000000000005;;;3.65;;
18471;SDS011;9365;48.258;12.518;2022-08-19T15:33:16;2.6199999999999997;;;1.64;;
18471;SDS011;9365;48.258;12.518;2022-08-19T15:38:44;3.3600000000000003;;;3.08;;
18471;SDS011;9365;48.258;12.518;2022-08-19T15:44:14;5.49;;;4.96;;
18471;SDS011;9365;48.258;12.518;2022-08-19T15:49:42;4.949999999999999;;;4.319999999999999;;
18471;SDS011;9365;48.258;12.518;2022-08-19T15:55:09;4.340000000000001;;;3.9899999999999993;;
18471;SDS011;9365;48.258;12.518;2022-08-19T16:00:37;4.6899999999999995;;;4.279999999999999;;
18471;SDS011;9365;48.258;12.518;2022-08-19T16:06:05;5.36;;;3.8299999999999996;;
18471;SDS011;9365;48.258;12.518;2022-08-19T16:11:33;6.380000000000001;;;3.9400000000000004;;
18471;SDS011;9365;48.258;12.518;2022-08-19T16:17:01;6.0200000000000005;;;2.66;;
18471;SDS011;9365;48.258;12.518;2022-08-19T16:22:29;1.1199999999999997;;;1.1199999999999997;;
18471;SDS011;9365;48.258;12.518;2022-08-19T16:27:57;1.1800000000000002;;;1.15;;
18471;SDS011;9365;48.258;12.518;2022-08-19T16:33:25;3.2099999999999995;;;1.32;;
18471;SDS011;9365;48.258;12.518;2022-08-19T16:38:53;1.65;;;1.55;;
18471;SDS011;9365;48.258;12.518;2022-08-19T16:44:21;1.8400000000000003;;;1.4899999999999998;;
18471;SDS011;9365;48.258;12.518;2022-08-19T16:49:48;3.1599999999999997;;;1.42;;
18471;SDS011;9365;48.258;12.518;2022-08-19T16:55:16;2.9699999999999998;;;2.5200000000000005;;
18471;SDS011;9365;48.258;12.518;2022-08-19T17:00:43;2.6199999999999997;;;2.45;;
18471;SDS011;9365;48.258;12.518;2022-08-19T17:06:12;3.2;;;2.25;;
18471;SDS011;9365;48.258;12.518;2022-08-19T17:11:41;3.3;;;2.7199999999999998;;
18471;SDS011;9365;48.258;12.518;2022-08-19T17:17:09;2.66;;;2.46;;
18471;SDS011;9365;48.258;12.518;2022-08-19T17:22:36;4.74;;;3.4899999999999998;;
18471;SDS011;9365;48.258;12.518;2022-08-19T17:28:05;6.609999999999999;;;5.65;;
18471;SDS011;9365;48.258;12.518;2022-08-19T17:33:33;8.760000000000002;;;6.1000000000000005;;
18471;SDS011;9365;48.258;12.518;2022-08-19T17:39:01;7.13;;;5.62;;
18471;SDS011;9365;48.258;12.518;2022-08-19T17:44:28;7.0200000000000005;;;5.31;;
18471;SDS011;9365;48.258;12.518;2022-08-19T17:49:56;8.7;;;6.65;;
18471;SDS011;9365;48.258;12.518;2022-08-19T17:55:23;11.610000000000001;;;7.639999999999999;;
18471;SDS011;9365;48.258;12.518;2022-08-19T18:00:51;9.91;;;7.99;;
18471;SDS011;9365;48.258;12.518;2022-08-19T18:06:18;12.03;;;8.440000000000001;;
18471;SDS011;9365;48.258;12.518;2022-08-19T18:11:46;11.15;;;8.370000000000001;;
18471;SDS011;9365;48.258;12.518;2022-08-19T18:17:15;11.91;;;8.709999999999999;;
18471;SDS011;9365;48.258;12.518;2022-08-19T18:22:43;11.22;;;8.7;;
18471;SDS011;9365;48.258;12.518;2022-08-19T18:28:11;11.08;;;9.110000000000001;;
18471;SDS011;9365;48.258;12.518;2022-08-19T18:33:39;10.559999999999999;;;8.53;;
18471;SDS011;9365;48.258;12.518;2022-08-19T18:39:07;10.070000000000002;;;7.83;;
18471;SDS011;9365;48.258;12.518;2022-08-19T18:44:34;9.739999999999998;;;7.880000000000001;;
18471;SDS011;9365;48.258;12.518;2022-08-19T18:50:02;9.610000000000001;;;7.99;;
18471;SDS011;9365;48.258;12.518;2022-08-19T18:55:30;7.32;;;6.590000000000001;;
18471;SDS011;9365;48.258;12.518;2022-08-19T19:00:58;8.19;;;6.5699999999999985;;
18471;SDS011;9365;48.258;12.518;2022-08-19T19:06:27;6.93;;;5.92;;
18471;SDS011;9365;48.258;12.518;2022-08-19T19:11:56;6.55;;;5.92;;
18471;SDS011;9365;48.258;12.518;2022-08-19T19:17:24;7.739999999999999;;;6.5;;
18471;SDS011;9365;48.258;12.518;2022-08-19T19:22:52;7.589999999999999;;;6.3;;
18471;SDS011;9365;48.258;12.518;2022-08-19T19:28:20;8.879999999999999;;;7.159999999999999;;
18471;SDS011;9365;48.258;12.518;2022-08-19T19:33:48;7.449999999999998;;;6.58;;
18471;SDS011;9365;48.258;12.518;2022-08-19T19:39:16;10.66;;;7.210000000000001;;
18471;SDS011;9365;48.258;12.518;2022-08-19T19:44:43;9.059999999999999;;;7.510000000000001;;
18471;SDS011;9365;48.258;12.518;2022-08-19T19:50:11;8.389999999999999;;;7.2299999999999995;;
18471;SDS011;9365;48.258;12.518;2022-08-19T19:55:38;5.49;;;4.9;;
18471;SDS011;9365;48.258;12.518;2022-08-19T20:01:06;5.7299999999999995;;;5.2299999999999995;;
18471;SDS011;9365;48.258;12.518;2022-08-19T20:06:34;4.069999999999999;;;3.7299999999999995;;
18471;SDS011;9365;48.258;12.518;2022-08-19T20:12:02;4.98;;;3.5700000000000003;;
18471;SDS011;9365;48.258;12.518;2022-08-19T20:17:29;3.9200000000000004;;;3.6199999999999997;;
18471;SDS011;9365;48.258;12.518;2022-08-19T20:22:57;4.51;;;4.13;;
18471;SDS011;9365;48.258;12.518;2022-08-19T20:28:25;6.33;;;4.39;;
18471;SDS011;9365;48.258;12.518;2022-08-19T20:33:52;4.68;;;4.29;;
18471;SDS011;9365;48.258;12.518;2022-08-19T20:39:20;4.56;;;4.17;;
18471;SDS011;9365;48.258;12.518;2022-08-19T20:44:48;5.2700000000000005;;;4.74;;
18471;SDS011;9365;48.258;12.518;2022-08-19T20:50:16;5.09;;;4.590000000000001;;
18471;SDS011;9365;48.258;12.518;2022-08-19T20:55:44;4.6499999999999995;;;4.25;;
18471;SDS011;9365;48.258;12.518;2022-08-19T21:01:13;5.34;;;4.25;;
18471;SDS011;9365;48.258;12.518;2022-08-19T21:06:40;4.78;;;4.28;;
18471;SDS011;9365;48.258;12.518;2022-08-19T21:12:10;5.260000000000001;;;4.8100000000000005;;
18471;SDS011;9365;48.258;12.518;2022-08-19T21:17:37;4.890000000000001;;;4.460000000000001;;
18471;SDS011;9365;48.258;12.518;2022-08-19T21:23:06;4.9;;;4.449999999999999;;
18471;SDS011;9365;48.258;12.518;2022-08-19T21:28:34;6.4399999999999995;;;5.869999999999999;;
18471;SDS011;9365;48.258;12.518;2022-08-19T21:34:02;7.4799999999999995;;;6.75;;
18471;SDS011;9365;48.258;12.518;2022-08-19T21:39:29;8.709999999999999;;;7.33;;
18471;SDS011;9365;48.258;12.518;2022-08-19T21:44:57;8.55;;;7.730000000000001;;
18471;SDS011;9365;48.258;12.518;2022-08-19T21:50:25;10.2;;;7.13;;
18471;SDS011;9365;48.258;12.518;2022-08-19T21:55:52;9.290000000000003;;;7.31;;
18471;SDS011;9365;48.258;12.518;2022-08-19T22:01:20;10.86;;;6.859999999999999;;
18471;SDS011;9365;48.258;12.518;2022-08-19T22:06:47;8.379999999999999;;;6.460000000000001;;
18471;SDS011;9365;48.258;12.518;2022-08-19T22:12:19;8.540000000000001;;;5.74;;
18471;SDS011;9365;48.258;12.518;2022-08-19T22:17:47;7.6;;;6.159999999999999;;
18471;SDS011;9365;48.258;12.518;2022-08-19T22:23:15;8.81;;;6.840000000000001;;
18471;SDS011;9365;48.258;12.518;2022-08-19T22:28:43;7.739999999999999;;;6.960000000000001;;
18471;SDS011;9365;48.258;12.518;2022-08-19T22:34:11;7.83;;;6.92;;
18471;SDS011;9365;48.258;12.518;2022-08-19T22:39:39;8.77;;;7.300000000000002;;
18471;SDS011;9365;48.258;12.518;2022-08-19T22:45:07;7.62;;;6.640000000000001;;
18471;SDS011;9365;48.258;12.518;2022-08-19T22:50:36;10.23;;;6.840000000000001;;
18471;SDS011;9365;48.258;12.518;2022-08-19T22:56:04;7.25;;;6.4;;
18471;SDS011;9365;48.258;12.518;2022-08-19T23:01:32;9.02;;;6.82;;
18471;SDS011;9365;48.258;12.518;2022-08-19T23:07:00;7.540000000000001;;;6.5;;
18471;SDS011;9365;48.258;12.518;2022-08-19T23:12:29;7.919999999999999;;;5.96;;
18471;SDS011;9365;48.258;12.518;2022-08-19T23:17:57;7.409999999999999;;;5.85;;
18471;SDS011;9365;48.258;12.518;2022-08-19T23:23:26;6.31;;;5.659999999999998;;
18471;SDS011;9365;48.258;12.518;2022-08-19T23:28:53;6.03;;;5.35;;
18471;SDS011;9365;48.258;12.518;2022-08-19T23:34:21;7.3;;;5.19;;
18471;SDS011;9365;48.258;12.518;2022-08-19T23:39:48;5.530000000000001;;;4.950000000000001;;
18471;SDS011;9365;48.258;12.518;2022-08-19T23:45:17;6.220000000000001;;;4.739999999999999;;
18471;SDS011;9365;48.258;12.518;2022-08-19T23:50:45;5.3;;;4.01;;
